sensor_id;sensor_type;location;lat;lon;timestamp;pressure;altitude;pressure_sealevel;temperature
18161;BMP280;9205;52.032;4.314;2023-07-13T00:02:00;101274.00;;;19.89
18161;BMP280;9205;52.032;4.314;2023-07-13T00:04:27;101273.03;;;19.92
18161;BMP280;9205;52.032;4.314;2023-07-13T00:06:54;101276.53;;;19.91
18161;BMP280;9205;52.032;4.314;2023-07-13T00:09:22;101267.94;;;19.90
18161;BMP280;9205;52.032;4.314;2023-07-13T00:11:54;101284.97;;;19.94
18161;BMP280;9205;52.032;4.314;2023-07-13T00:14:25;101271.97;;;19.96
18161;BMP280;9205;52.032;4.314;2023-07-13T00:16:52;101279.81;;;19.94
18161;BMP280;9205;52.032;4.314;2023-07-13T00:19:20;101283.81;;;20.00
18161;BMP280;9205;52.032;4.314;2023-07-13T00:21:47;101286.44;;;19.98
18161;BMP280;9205;52.032;4.314;2023-07-13T00:24:18;101285.63;;;19.98
18161;BMP280;9205;52.032;4.314;2023-07-13T00:26:49;101286.63;;;19.95
18161;BMP280;9205;52.032;4.314;2023-07-13T00:29:16;101295.09;;;19.97
18161;BMP280;9205;52.032;4.314;2023-07-13T00:31:45;101293.56;;;19.93
18161;BMP280;9205;52.032;4.314;2023-07-13T00:34:12;101293.72;;;19.90
18161;BMP280;9205;52.032;4.314;2023-07-13T00:36:40;101292.22;;;19.86
18161;BMP280;9205;52.032;4.314;2023-07-13T00:39:07;101293.91;;;19.87
18161;BMP280;9205;52.032;4.314;2023-07-13T00:41:35;101294.81;;;19.86
18161;BMP280;9205;52.032;4.314;2023-07-13T00:44:04;101287.06;;;19.86
18161;BMP280;9205;52.032;4.314;2023-07-13T00:46:33;101288.13;;;19.82
18161;BMP280;9205;52.032;4.314;2023-07-13T00:49:08;101283.88;;;19.81
18161;BMP280;9205;52.032;4.314;2023-07-13T00:51:44;101282.38;;;19.77
18161;BMP280;9205;52.032;4.314;2023-07-13T00:54:19;101289.38;;;19.75
18161;BMP280;9205;52.032;4.314;2023-07-13T00:56:51;101291.28;;;19.72
18161;BMP280;9205;52.032;4.314;2023-07-13T00:59:21;101292.13;;;19.72
18161;BMP280;9205;52.032;4.314;2023-07-13T01:01:48;101294.16;;;19.66
18161;BMP280;9205;52.032;4.314;2023-07-13T01:04:18;101287.19;;;19.68
18161;BMP280;9205;52.032;4.314;2023-07-13T01:06:46;101291.69;;;19.65
18161;BMP280;9205;52.032;4.314;2023-07-13T01:09:14;101288.94;;;19.67
18161;BMP280;9205;52.032;4.314;2023-07-13T01:11:44;101291.72;;;19.63
18161;BMP280;9205;52.032;4.314;2023-07-13T01:14:12;101303.22;;;19.58
18161;BMP280;9205;52.032;4.314;2023-07-13T01:16:42;101294.81;;;19.54
18161;BMP280;9205;52.032;4.314;2023-07-13T01:19:28;101310.56;;;19.48
18161;BMP280;9205;52.032;4.314;2023-07-13T01:22:04;101300.56;;;19.42
18161;BMP280;9205;52.032;4.314;2023-07-13T01:24:35;101302.91;;;19.47
18161;BMP280;9205;52.032;4.314;2023-07-13T01:27:03;101308.81;;;19.49
18161;BMP280;9205;52.032;4.314;2023-07-13T01:29:33;101316.69;;;19.46
18161;BMP280;9205;52.032;4.314;2023-07-13T01:32:00;101310.19;;;19.39
18161;BMP280;9205;52.032;4.314;2023-07-13T01:34:28;101314.06;;;19.30
18161;BMP280;9205;52.032;4.314;2023-07-13T01:36:55;101313.53;;;19.24
18161;BMP280;9205;52.032;4.314;2023-07-13T01:39:24;101315.50;;;19.19
18161;BMP280;9205;52.032;4.314;2023-07-13T01:41:51;101310.06;;;19.25
18161;BMP280;9205;52.032;4.314;2023-07-13T01:44:20;101311.84;;;19.23
18161;BMP280;9205;52.032;4.314;2023-07-13T01:46:47;101310.88;;;19.25
18161;BMP280;9205;52.032;4.314;2023-07-13T01:49:14;101308.59;;;19.19
18161;BMP280;9205;52.032;4.314;2023-07-13T01:51:42;101316.41;;;19.18
18161;BMP280;9205;52.032;4.314;2023-07-13T01:54:10;101306.78;;;19.21
18161;BMP280;9205;52.032;4.314;2023-07-13T01:56:39;101320.66;;;19.19
18161;BMP280;9205;52.032;4.314;2023-07-13T01:59:08;101312.94;;;19.19
18161;BMP280;9205;52.032;4.314;2023-07-13T02:01:35;101312.16;;;19.17
18161;BMP280;9205;52.032;4.314;2023-07-13T02:04:03;101311.09;;;19.21
18161;BMP280;9205;52.032;4.314;2023-07-13T02:06:33;101319.44;;;19.26
18161;BMP280;9205;52.032;4.314;2023-07-13T02:09:00;101321.25;;;19.24
18161;BMP280;9205;52.032;4.314;2023-07-13T02:11:27;101315.28;;;19.23
18161;BMP280;9205;52.032;4.314;2023-07-13T02:14:00;101317.59;;;19.28
18161;BMP280;9205;52.032;4.314;2023-07-13T02:16:28;101318.00;;;19.20
18161;BMP280;9205;52.032;4.314;2023-07-13T02:18:55;101323.28;;;19.17
18161;BMP280;9205;52.032;4.314;2023-07-13T02:21:23;101323.16;;;19.20
18161;BMP280;9205;52.032;4.314;2023-07-13T02:23:52;101319.59;;;19.23
18161;BMP280;9205;52.032;4.314;2023-07-13T02:26:19;101314.34;;;19.24
18161;BMP280;9205;52.032;4.314;2023-07-13T02:28:47;101321.25;;;19.24
18161;BMP280;9205;52.032;4.314;2023-07-13T02:31:16;101315.19;;;19.25
18161;BMP280;9205;52.032;4.314;2023-07-13T02:33:43;101319.38;;;19.27
18161;BMP280;9205;52.032;4.314;2023-07-13T02:36:12;101324.44;;;19.29
18161;BMP280;9205;52.032;4.314;2023-07-13T02:38:44;101319.28;;;19.29
18161;BMP280;9205;52.032;4.314;2023-07-13T02:41:11;101318.47;;;19.28
18161;BMP280;9205;52.032;4.314;2023-07-13T02:43:39;101318.53;;;19.27
18161;BMP280;9205;52.032;4.314;2023-07-13T02:46:09;101322.94;;;19.25
18161;BMP280;9205;52.032;4.314;2023-07-13T02:48:39;101321.81;;;19.30
18161;BMP280;9205;52.032;4.314;2023-07-13T02:51:07;101319.22;;;19.30
18161;BMP280;9205;52.032;4.314;2023-07-13T02:53:34;101322.47;;;19.34
18161;BMP280;9205;52.032;4.314;2023-07-13T02:56:02;101323.28;;;19.34
18161;BMP280;9205;52.032;4.314;2023-07-13T02:58:30;101322.16;;;19.40
18161;BMP280;9205;52.032;4.314;2023-07-13T03:00:58;101318.38;;;19.30
18161;BMP280;9205;52.032;4.314;2023-07-13T03:03:26;101322.75;;;19.28
18161;BMP280;9205;52.032;4.314;2023-07-13T03:06:02;101324.28;;;19.32
18161;BMP280;9205;52.032;4.314;2023-07-13T03:08:37;101326.88;;;19.32
18161;BMP280;9205;52.032;4.314;2023-07-13T03:11:07;101329.44;;;19.32
18161;BMP280;9205;52.032;4.314;2023-07-13T03:13:41;101329.13;;;19.38
18161;BMP280;9205;52.032;4.314;2023-07-13T03:16:09;101332.31;;;19.43
18161;BMP280;9205;52.032;4.314;2023-07-13T03:18:38;101329.81;;;19.41
18161;BMP280;9205;52.032;4.314;2023-07-13T03:21:10;101334.06;;;19.42
18161;BMP280;9205;52.032;4.314;2023-07-13T03:23:38;101332.31;;;19.43
18161;BMP280;9205;52.032;4.314;2023-07-13T03:26:09;101328.81;;;19.44
18161;BMP280;9205;52.032;4.314;2023-07-13T03:28:39;101319.81;;;19.35
18161;BMP280;9205;52.032;4.314;2023-07-13T03:31:11;101324.28;;;19.32
18161;BMP280;9205;52.032;4.314;2023-07-13T03:33:41;101321.63;;;19.33
18161;BMP280;9205;52.032;4.314;2023-07-13T03:36:14;101327.47;;;19.37
18161;BMP280;9205;52.032;4.314;2023-07-13T03:38:46;101330.22;;;19.34
18161;BMP280;9205;52.032;4.314;2023-07-13T03:41:15;101333.50;;;19.36
18161;BMP280;9205;52.032;4.314;2023-07-13T03:43:43;101328.31;;;19.37
18161;BMP280;9205;52.032;4.314;2023-07-13T03:46:11;101343.69;;;19.39
18161;BMP280;9205;52.032;4.314;2023-07-13T03:48:38;101337.75;;;19.37
18161;BMP280;9205;52.032;4.314;2023-07-13T03:51:11;101336.72;;;19.41
18161;BMP280;9205;52.032;4.314;2023-07-13T03:53:42;101332.63;;;19.37
18161;BMP280;9205;52.032;4.314;2023-07-13T03:56:12;101333.50;;;19.36
18161;BMP280;9205;52.032;4.314;2023-07-13T03:58:43;101333.59;;;19.34
18161;BMP280;9205;52.032;4.314;2023-07-13T04:01:18;101341.88;;;19.41
18161;BMP280;9205;52.032;4.314;2023-07-13T04:03:45;101343.59;;;19.40
18161;BMP280;9205;52.032;4.314;2023-07-13T04:06:18;101344.91;;;19.49
18161;BMP280;9205;52.032;4.314;2023-07-13T04:08:49;101345.63;;;19.51
18161;BMP280;9205;52.032;4.314;2023-07-13T04:11:17;101349.88;;;19.52
18161;BMP280;9205;52.032;4.314;2023-07-13T04:13:46;101339.53;;;19.53
18161;BMP280;9205;52.032;4.314;2023-07-13T04:16:13;101347.94;;;19.57
18161;BMP280;9205;52.032;4.314;2023-07-13T04:18:41;101343.69;;;19.56
18161;BMP280;9205;52.032;4.314;2023-07-13T04:21:09;101349.50;;;19.59
18161;BMP280;9205;52.032;4.314;2023-07-13T04:23:38;101356.41;;;19.59
18161;BMP280;9205;52.032;4.314;2023-07-13T04:26:07;101347.03;;;19.58
18161;BMP280;9205;52.032;4.314;2023-07-13T04:28:34;101347.94;;;19.57
18161;BMP280;9205;52.032;4.314;2023-07-13T04:31:02;101363.44;;;19.55
18161;BMP280;9205;52.032;4.314;2023-07-13T04:33:29;101365.78;;;19.60
18161;BMP280;9205;52.032;4.314;2023-07-13T04:35:57;101367.31;;;19.64
18161;BMP280;9205;52.032;4.314;2023-07-13T04:38:27;101364.56;;;19.66
18161;BMP280;9205;52.032;4.314;2023-07-13T04:40:58;101368.78;;;19.69
18161;BMP280;9205;52.032;4.314;2023-07-13T04:43:28;101369.59;;;19.69
18161;BMP280;9205;52.032;4.314;2023-07-13T04:45:55;101369.72;;;19.66
18161;BMP280;9205;52.032;4.314;2023-07-13T04:48:23;101375.41;;;19.73
18161;BMP280;9205;52.032;4.314;2023-07-13T04:50:56;101377.91;;;19.74
18161;BMP280;9205;52.032;4.314;2023-07-13T04:53:23;101377.84;;;19.76
18161;BMP280;9205;52.032;4.314;2023-07-13T04:55:51;101385.19;;;19.83
18161;BMP280;9205;52.032;4.314;2023-07-13T04:58:19;101376.88;;;19.78
18161;BMP280;9205;52.032;4.314;2023-07-13T05:00:47;101375.78;;;19.82
18161;BMP280;9205;52.032;4.314;2023-07-13T05:03:14;101385.03;;;19.86
18161;BMP280;9205;52.032;4.314;2023-07-13T05:05:42;101391.69;;;19.90
18161;BMP280;9205;52.032;4.314;2023-07-13T05:08:09;101394.94;;;19.95
18161;BMP280;9205;52.032;4.314;2023-07-13T05:10:36;101394.06;;;19.95
18161;BMP280;9205;52.032;4.314;2023-07-13T05:13:03;101393.28;;;19.93
18161;BMP280;9205;52.032;4.314;2023-07-13T05:15:33;101400.19;;;19.92
18161;BMP280;9205;52.032;4.314;2023-07-13T05:18:00;101398.53;;;19.91
18161;BMP280;9205;52.032;4.314;2023-07-13T05:20:27;101401.19;;;19.90
18161;BMP280;9205;52.032;4.314;2023-07-13T05:22:55;101412.19;;;19.93
18161;BMP280;9205;52.032;4.314;2023-07-13T05:25:22;101407.63;;;19.81
18161;BMP280;9205;52.032;4.314;2023-07-13T05:27:49;101402.31;;;19.84
18161;BMP280;9205;52.032;4.314;2023-07-13T05:30:16;101409.16;;;19.85
18161;BMP280;9205;52.032;4.314;2023-07-13T05:32:45;101408.16;;;19.88
18161;BMP280;9205;52.032;4.314;2023-07-13T05:35:12;101408.75;;;19.93
18161;BMP280;9205;52.032;4.314;2023-07-13T05:37:39;101410.22;;;19.98
18161;BMP280;9205;52.032;4.314;2023-07-13T05:40:08;101414.47;;;19.99
18161;BMP280;9205;52.032;4.314;2023-07-13T05:42:35;101420.00;;;20.09
18161;BMP280;9205;52.032;4.314;2023-07-13T05:45:03;101419.75;;;20.13
18161;BMP280;9205;52.032;4.314;2023-07-13T05:47:31;101423.84;;;20.17
18161;BMP280;9205;52.032;4.314;2023-07-13T05:49:59;101426.44;;;20.17
18161;BMP280;9205;52.032;4.314;2023-07-13T05:52:26;101433.25;;;20.18
18161;BMP280;9205;52.032;4.314;2023-07-13T05:54:54;101429.25;;;20.13
18161;BMP280;9205;52.032;4.314;2023-07-13T05:57:21;101437.81;;;20.13
18161;BMP280;9205;52.032;4.314;2023-07-13T05:59:48;101440.25;;;20.16
18161;BMP280;9205;52.032;4.314;2023-07-13T06:02:16;101443.88;;;20.12
18161;BMP280;9205;52.032;4.314;2023-07-13T06:04:43;101445.53;;;20.13
18161;BMP280;9205;52.032;4.314;2023-07-13T06:07:11;101445.88;;;20.07
18161;BMP280;9205;52.032;4.314;2023-07-13T06:09:39;101450.34;;;20.04
18161;BMP280;9205;52.032;4.314;2023-07-13T06:12:07;101439.34;;;20.00
18161;BMP280;9205;52.032;4.314;2023-07-13T06:14:35;101449.91;;;19.96
18161;BMP280;9205;52.032;4.314;2023-07-13T06:17:02;101453.16;;;19.99
18161;BMP280;9205;52.032;4.314;2023-07-13T06:19:29;101446.72;;;20.08
18161;BMP280;9205;52.032;4.314;2023-07-13T06:21:57;101460.88;;;20.16
18161;BMP280;9205;52.032;4.314;2023-07-13T06:24:27;101450.91;;;20.26
18161;BMP280;9205;52.032;4.314;2023-07-13T06:26:54;101454.13;;;20.31
18161;BMP280;9205;52.032;4.314;2023-07-13T06:29:21;101467.84;;;20.31
18161;BMP280;9205;52.032;4.314;2023-07-13T06:31:48;101465.25;;;20.31
18161;BMP280;9205;52.032;4.314;2023-07-13T06:34:15;101464.19;;;20.35
18161;BMP280;9205;52.032;4.314;2023-07-13T06:36:44;101462.19;;;20.40
18161;BMP280;9205;52.032;4.314;2023-07-13T06:39:11;101470.56;;;20.28
18161;BMP280;9205;52.032;4.314;2023-07-13T06:41:40;101467.16;;;20.28
18161;BMP280;9205;52.032;4.314;2023-07-13T06:44:10;101478.28;;;20.28
18161;BMP280;9205;52.032;4.314;2023-07-13T06:46:37;101473.44;;;20.39
18161;BMP280;9205;52.032;4.314;2023-07-13T06:49:05;101476.34;;;20.48
18161;BMP280;9205;52.032;4.314;2023-07-13T06:51:32;101472.50;;;20.57
18161;BMP280;9205;52.032;4.314;2023-07-13T06:53:59;101471.72;;;20.55
18161;BMP280;9205;52.032;4.314;2023-07-13T06:56:26;101481.81;;;20.59
18161;BMP280;9205;52.032;4.314;2023-07-13T06:58:55;101481.47;;;20.65
18161;BMP280;9205;52.032;4.314;2023-07-13T07:01:22;101483.47;;;20.60
18161;BMP280;9205;52.032;4.314;2023-07-13T07:03:49;101491.59;;;20.53
18161;BMP280;9205;52.032;4.314;2023-07-13T07:06:19;101480.69;;;20.48
18161;BMP280;9205;52.032;4.314;2023-07-13T07:08:49;101488.53;;;20.47
18161;BMP280;9205;52.032;4.314;2023-07-13T07:11:20;101482.38;;;20.49
18161;BMP280;9205;52.032;4.314;2023-07-13T07:13:48;101484.72;;;20.53
18161;BMP280;9205;52.032;4.314;2023-07-13T07:16:18;101472.25;;;20.61
18161;BMP280;9205;52.032;4.314;2023-07-13T07:18:46;101479.66;;;20.67
18161;BMP280;9205;52.032;4.314;2023-07-13T07:21:14;101480.78;;;20.79
18161;BMP280;9205;52.032;4.314;2023-07-13T07:23:42;101493.38;;;20.85
18161;BMP280;9205;52.032;4.314;2023-07-13T07:26:10;101494.13;;;20.87
18161;BMP280;9205;52.032;4.314;2023-07-13T07:28:37;101502.63;;;20.89
18161;BMP280;9205;52.032;4.314;2023-07-13T07:31:04;101488.28;;;20.83
18161;BMP280;9205;52.032;4.314;2023-07-13T07:33:34;101496.72;;;20.87
18161;BMP280;9205;52.032;4.314;2023-07-13T07:36:01;101495.94;;;20.85
18161;BMP280;9205;52.032;4.314;2023-07-13T07:38:29;101499.19;;;20.88
18161;BMP280;9205;52.032;4.314;2023-07-13T07:40:56;101500.78;;;20.91
18161;BMP280;9205;52.032;4.314;2023-07-13T07:43:24;101504.28;;;20.90
18161;BMP280;9205;52.032;4.314;2023-07-13T07:45:51;101500.28;;;20.84
18161;BMP280;9205;52.032;4.314;2023-07-13T07:48:18;101495.72;;;20.89
18161;BMP280;9205;52.032;4.314;2023-07-13T07:50:47;101510.53;;;21.01
18161;BMP280;9205;52.032;4.314;2023-07-13T07:53:14;101505.38;;;21.01
18161;BMP280;9205;52.032;4.314;2023-07-13T07:55:41;101511.38;;;21.02
18161;BMP280;9205;52.032;4.314;2023-07-13T07:58:10;101518.94;;;21.05
18161;BMP280;9205;52.032;4.314;2023-07-13T08:00:38;101516.13;;;20.94
18161;BMP280;9205;52.032;4.314;2023-07-13T08:03:06;101519.19;;;20.85
18161;BMP280;9205;52.032;4.314;2023-07-13T08:05:35;101533.53;;;20.90
18161;BMP280;9205;52.032;4.314;2023-07-13T08:08:04;101523.34;;;20.87
18161;BMP280;9205;52.032;4.314;2023-07-13T08:10:35;101531.03;;;20.89
18161;BMP280;9205;52.032;4.314;2023-07-13T08:13:02;101531.03;;;20.89
18161;BMP280;9205;52.032;4.314;2023-07-13T08:15:30;101530.09;;;20.90
18161;BMP280;9205;52.032;4.314;2023-07-13T08:17:57;101520.38;;;20.95
18161;BMP280;9205;52.032;4.314;2023-07-13T08:20:24;101534.59;;;20.86
18161;BMP280;9205;52.032;4.314;2023-07-13T08:22:51;101529.66;;;20.82
18161;BMP280;9205;52.032;4.314;2023-07-13T08:25:20;101542.53;;;20.83
18161;BMP280;9205;52.032;4.314;2023-07-13T08:27:48;101529.28;;;20.72
18161;BMP280;9205;52.032;4.314;2023-07-13T08:30:15;101540.53;;;20.71
18161;BMP280;9205;52.032;4.314;2023-07-13T08:32:43;101539.41;;;20.77
18161;BMP280;9205;52.032;4.314;2023-07-13T08:35:10;101527.69;;;20.87
18161;BMP280;9205;52.032;4.314;2023-07-13T08:37:39;101532.53;;;20.93
18161;BMP280;9205;52.032;4.314;2023-07-13T08:40:09;101537.38;;;20.99
18161;BMP280;9205;52.032;4.314;2023-07-13T08:42:44;101530.72;;;21.10
18161;BMP280;9205;52.032;4.314;2023-07-13T08:45:21;101529.88;;;21.10
18161;BMP280;9205;52.032;4.314;2023-07-13T08:47:55;101537.22;;;21.02
18161;BMP280;9205;52.032;4.314;2023-07-13T08:50:30;101539.63;;;21.05
18161;BMP280;9205;52.032;4.314;2023-07-13T08:52:59;101537.78;;;21.07
18161;BMP280;9205;52.032;4.314;2023-07-13T08:55:32;101535.97;;;21.09
18161;BMP280;9205;52.032;4.314;2023-07-13T08:58:09;101536.41;;;21.17
18161;BMP280;9205;52.032;4.314;2023-07-13T09:00:48;101536.63;;;21.12
18161;BMP280;9205;52.032;4.314;2023-07-13T09:03:24;101540.56;;;21.04
18161;BMP280;9205;52.032;4.314;2023-07-13T09:05:57;101523.88;;;20.94
18161;BMP280;9205;52.032;4.314;2023-07-13T09:08:46;101531.03;;;21.04
18161;BMP280;9205;52.032;4.314;2023-07-13T09:11:43;101534.56;;;21.19
18161;BMP280;9205;52.032;4.314;2023-07-13T09:14:36;101531.41;;;21.29
18161;BMP280;9205;52.032;4.314;2023-07-13T09:17:12;101539.47;;;21.38
18161;BMP280;9205;52.032;4.314;2023-07-13T09:19:42;101540.56;;;21.50
18161;BMP280;9205;52.032;4.314;2023-07-13T09:22:16;101542.22;;;21.51
18161;BMP280;9205;52.032;4.314;2023-07-13T09:24:55;101535.38;;;21.50
18161;BMP280;9205;52.032;4.314;2023-07-13T09:27:31;101553.72;;;21.45
18161;BMP280;9205;52.032;4.314;2023-07-13T09:30:22;101560.91;;;21.40
18161;BMP280;9205;52.032;4.314;2023-07-13T09:32:53;101553.25;;;21.39
18161;BMP280;9205;52.032;4.314;2023-07-13T09:35:25;101556.22;;;21.31
18161;BMP280;9205;52.032;4.314;2023-07-13T09:37:59;101558.06;;;21.29
18161;BMP280;9205;52.032;4.314;2023-07-13T09:40:44;101558.66;;;21.34
18161;BMP280;9205;52.032;4.314;2023-07-13T09:43:17;101554.88;;;21.40
18161;BMP280;9205;52.032;4.314;2023-07-13T09:45:47;101570.63;;;21.35
18161;BMP280;9205;52.032;4.314;2023-07-13T09:48:17;101562.06;;;21.20
18161;BMP280;9205;52.032;4.314;2023-07-13T09:50:44;101570.75;;;21.19
18161;BMP280;9205;52.032;4.314;2023-07-13T09:53:14;101571.22;;;21.25
18161;BMP280;9205;52.032;4.314;2023-07-13T09:55:44;101582.66;;;21.36
18161;BMP280;9205;52.032;4.314;2023-07-13T09:58:14;101579.47;;;21.47
18161;BMP280;9205;52.032;4.314;2023-07-13T10:00:44;101581.59;;;21.56
18161;BMP280;9205;52.032;4.314;2023-07-13T10:03:24;101586.06;;;21.52
18161;BMP280;9205;52.032;4.314;2023-07-13T10:05:53;101585.84;;;21.41
18161;BMP280;9205;52.032;4.314;2023-07-13T10:08:25;101579.09;;;21.39
18161;BMP280;9205;52.032;4.314;2023-07-13T10:10:58;101593.09;;;21.50
18161;BMP280;9205;52.032;4.314;2023-07-13T10:13:41;101588.53;;;21.55
18161;BMP280;9205;52.032;4.314;2023-07-13T10:16:09;101601.69;;;21.66
18161;BMP280;9205;52.032;4.314;2023-07-13T10:18:45;101608.47;;;21.69
18161;BMP280;9205;52.032;4.314;2023-07-13T10:21:17;101601.94;;;21.77
18161;BMP280;9205;52.032;4.314;2023-07-13T10:23:51;101605.09;;;21.82
18161;BMP280;9205;52.032;4.314;2023-07-13T10:26:26;101612.84;;;21.98
18161;BMP280;9205;52.032;4.314;2023-07-13T10:29:00;101611.28;;;21.95
18161;BMP280;9205;52.032;4.314;2023-07-13T10:31:30;101612.59;;;21.87
18161;BMP280;9205;52.032;4.314;2023-07-13T10:33:59;101621.78;;;21.92
18161;BMP280;9205;52.032;4.314;2023-07-13T10:36:37;101616.50;;;22.09
18161;BMP280;9205;52.032;4.314;2023-07-13T10:39:07;101619.66;;;22.14
18161;BMP280;9205;52.032;4.314;2023-07-13T10:41:41;101617.41;;;22.08
18161;BMP280;9205;52.032;4.314;2023-07-13T10:44:20;101614.00;;;22.08
18161;BMP280;9205;52.032;4.314;2023-07-13T10:46:54;101623.56;;;22.21
18161;BMP280;9205;52.032;4.314;2023-07-13T10:49:26;101621.06;;;22.35
18161;BMP280;9205;52.032;4.314;2023-07-13T10:51:55;101624.59;;;22.48
18161;BMP280;9205;52.032;4.314;2023-07-13T10:54:29;101626.44;;;22.46
18161;BMP280;9205;52.032;4.314;2023-07-13T10:57:19;101624.69;;;22.46
18161;BMP280;9205;52.032;4.314;2023-07-13T11:00:16;101623.47;;;22.52
18161;BMP280;9205;52.032;4.314;2023-07-13T11:02:56;101636.13;;;22.72
18161;BMP280;9205;52.032;4.314;2023-07-13T11:05:30;101638.31;;;22.64
18161;BMP280;9205;52.032;4.314;2023-07-13T11:08:18;101634.03;;;22.49
18161;BMP280;9205;52.032;4.314;2023-07-13T11:10:51;101649.22;;;22.69
18161;BMP280;9205;52.032;4.314;2023-07-13T11:13:58;101629.50;;;23.23
18161;BMP280;9205;52.032;4.314;2023-07-13T11:16:45;101627.56;;;23.67
18161;BMP280;9205;52.032;4.314;2023-07-13T11:19:40;101640.47;;;24.60
18161;BMP280;9205;52.032;4.314;2023-07-13T11:22:22;101637.75;;;24.49
18161;BMP280;9205;52.032;4.314;2023-07-13T11:25:00;101636.84;;;24.24
18161;BMP280;9205;52.032;4.314;2023-07-13T11:27:42;101625.59;;;24.11
18161;BMP280;9205;52.032;4.314;2023-07-13T11:30:32;101632.25;;;23.88
18161;BMP280;9205;52.032;4.314;2023-07-13T11:33:15;101630.75;;;23.58
18161;BMP280;9205;52.032;4.314;2023-07-13T11:35:58;101639.38;;;23.45
18161;BMP280;9205;52.032;4.314;2023-07-13T11:38:35;101637.63;;;23.31
18161;BMP280;9205;52.032;4.314;2023-07-13T11:41:07;101639.13;;;23.21
18161;BMP280;9205;52.032;4.314;2023-07-13T11:43:39;101635.63;;;23.08
18161;BMP280;9205;52.032;4.314;2023-07-13T11:46:15;101641.88;;;23.46
18161;BMP280;9205;52.032;4.314;2023-07-13T11:48:44;101629.97;;;23.70
18161;BMP280;9205;52.032;4.314;2023-07-13T11:51:21;101642.59;;;24.02
18161;BMP280;9205;52.032;4.314;2023-07-13T11:53:54;101642.44;;;24.18
18161;BMP280;9205;52.032;4.314;2023-07-13T11:56:23;101641.41;;;24.20
18161;BMP280;9205;52.032;4.314;2023-07-13T11:58:54;101650.03;;;24.33
18161;BMP280;9205;52.032;4.314;2023-07-13T12:01:25;101648.00;;;24.38
18161;BMP280;9205;52.032;4.314;2023-07-13T12:03:55;101645.25;;;24.53
18161;BMP280;9205;52.032;4.314;2023-07-13T12:06:27;101646.00;;;24.68
18161;BMP280;9205;52.032;4.314;2023-07-13T12:09:02;101635.00;;;24.77
18161;BMP280;9205;52.032;4.314;2023-07-13T12:11:35;101634.25;;;24.87
18161;BMP280;9205;52.032;4.314;2023-07-13T12:14:03;101640.06;;;25.03
18161;BMP280;9205;52.032;4.314;2023-07-13T12:16:33;101654.81;;;25.03
18161;BMP280;9205;52.032;4.314;2023-07-13T12:19:01;101646.53;;;24.85
18161;BMP280;9205;52.032;4.314;2023-07-13T12:21:33;101642.78;;;24.89
18161;BMP280;9205;52.032;4.314;2023-07-13T12:24:04;101643.00;;;24.99
18161;BMP280;9205;52.032;4.314;2023-07-13T12:26:32;101637.19;;;25.20
18161;BMP280;9205;52.032;4.314;2023-07-13T12:29:01;101644.31;;;25.29
18161;BMP280;9205;52.032;4.314;2023-07-13T12:31:36;101643.00;;;25.24
18161;BMP280;9205;52.032;4.314;2023-07-13T12:34:08;101645.38;;;25.14
18161;BMP280;9205;52.032;4.314;2023-07-13T12:36:41;101639.06;;;25.18
18161;BMP280;9205;52.032;4.314;2023-07-13T12:39:18;101647.91;;;25.16
18161;BMP280;9205;52.032;4.314;2023-07-13T12:41:47;101631.56;;;25.14
18161;BMP280;9205;52.032;4.314;2023-07-13T12:44:19;101637.47;;;25.03
18161;BMP280;9205;52.032;4.314;2023-07-13T12:46:58;101635.72;;;25.16
18161;BMP280;9205;52.032;4.314;2023-07-13T12:49:32;101643.19;;;25.21
18161;BMP280;9205;52.032;4.314;2023-07-13T12:52:09;101647.75;;;25.42
18161;BMP280;9205;52.032;4.314;2023-07-13T12:54:42;101635.00;;;25.62
18161;BMP280;9205;52.032;4.314;2023-07-13T12:57:18;101653.28;;;25.25
18161;BMP280;9205;52.032;4.314;2023-07-13T12:59:46;101643.38;;;25.30
18161;BMP280;9205;52.032;4.314;2023-07-13T13:02:27;101664.59;;;25.49
18161;BMP280;9205;52.032;4.314;2023-07-13T13:05:01;101654.13;;;25.13
18161;BMP280;9205;52.032;4.314;2023-07-13T13:07:30;101653.81;;;25.05
18161;BMP280;9205;52.032;4.314;2023-07-13T13:09:58;101656.63;;;25.27
18161;BMP280;9205;52.032;4.314;2023-07-13T13:12:26;101651.81;;;25.33
18161;BMP280;9205;52.032;4.314;2023-07-13T13:14:53;101658.59;;;25.36
18161;BMP280;9205;52.032;4.314;2023-07-13T13:17:24;101661.53;;;25.19
18161;BMP280;9205;52.032;4.314;2023-07-13T13:19:53;101662.53;;;25.04
18161;BMP280;9205;52.032;4.314;2023-07-13T13:22:21;101670.34;;;25.04
18161;BMP280;9205;52.032;4.314;2023-07-13T13:24:49;101679.09;;;25.28
18161;BMP280;9205;52.032;4.314;2023-07-13T13:27:21;101669.00;;;25.24
18161;BMP280;9205;52.032;4.314;2023-07-13T13:29:50;101671.00;;;25.20
18161;BMP280;9205;52.032;4.314;2023-07-13T13:32:19;101666.69;;;25.44
18161;BMP280;9205;52.032;4.314;2023-07-13T13:34:46;101661.81;;;25.39
18161;BMP280;9205;52.032;4.314;2023-07-13T13:37:19;101670.75;;;25.35
18161;BMP280;9205;52.032;4.314;2023-07-13T13:39:48;101669.81;;;25.36
18161;BMP280;9205;52.032;4.314;2023-07-13T13:42:15;101679.16;;;25.39
18161;BMP280;9205;52.032;4.314;2023-07-13T13:44:44;101669.94;;;25.35
18161;BMP280;9205;52.032;4.314;2023-07-13T13:47:29;101670.75;;;25.35
18161;BMP280;9205;52.032;4.314;2023-07-13T13:49:57;101670.22;;;25.43
18161;BMP280;9205;52.032;4.314;2023-07-13T13:52:24;101669.06;;;25.47
18161;BMP280;9205;52.032;4.314;2023-07-13T13:54:52;101669.59;;;25.39
18161;BMP280;9205;52.032;4.314;2023-07-13T13:57:23;101676.06;;;25.34
18161;BMP280;9205;52.032;4.314;2023-07-13T13:59:52;101667.19;;;25.49
18161;BMP280;9205;52.032;4.314;2023-07-13T14:02:26;101688.94;;;25.35
18161;BMP280;9205;52.032;4.314;2023-07-13T14:04:59;101668.56;;;25.30
18161;BMP280;9205;52.032;4.314;2023-07-13T14:07:27;101682.31;;;25.32
18161;BMP280;9205;52.032;4.314;2023-07-13T14:09:58;101672.28;;;25.38
18161;BMP280;9205;52.032;4.314;2023-07-13T14:12:28;101682.94;;;25.35
18161;BMP280;9205;52.032;4.314;2023-07-13T14:14:57;101680.72;;;25.29
18161;BMP280;9205;52.032;4.314;2023-07-13T14:17:27;101674.59;;;25.30
18161;BMP280;9205;52.032;4.314;2023-07-13T14:19:55;101677.44;;;25.27
18161;BMP280;9205;52.032;4.314;2023-07-13T14:22:24;101666.91;;;25.29
18161;BMP280;9205;52.032;4.314;2023-07-13T14:24:53;101670.00;;;25.33
18161;BMP280;9205;52.032;4.314;2023-07-13T14:27:21;101664.78;;;25.46
18161;BMP280;9205;52.032;4.314;2023-07-13T14:29:48;101668.06;;;25.25